createdAt,value
2022-08-17T00:00:34.246Z,4.10
2022-08-17T00:03:09.158Z,4.72
2022-08-17T00:05:43.820Z,4.70
2022-08-17T00:08:12.937Z,4.38
2022-08-17T00:10:41.903Z,4.30
2022-08-17T00:13:12.285Z,4.15
2022-08-17T00:15:40.128Z,4.35
2022-08-17T00:19:01.091Z,4.07
2022-08-17T00:20:58.795Z,4.25
2022-08-17T00:25:55.230Z,5.53
2022-08-17T00:28:23.359Z,4.70
2022-08-17T00:30:53.679Z,5.18
2022-08-17T00:33:25.557Z,4.18
2022-08-17T00:35:54.918Z,4.13
2022-08-17T00:38:25.647Z,4.03
2022-08-17T00:40:59.183Z,4.32
2022-08-17T00:43:31.885Z,5.78
2022-08-17T00:46:00.779Z,4.40
2022-08-17T00:48:30.767Z,3.95
2022-08-17T00:51:08.210Z,4.57
2022-08-17T00:53:40.267Z,4.30
2022-08-17T00:56:11.875Z,4.80
2022-08-17T00:58:39.961Z,4.88
2022-08-17T01:01:11.546Z,4.90
2022-08-17T01:03:40.448Z,4.70
2022-08-17T01:06:09.400Z,4.38
2022-08-17T01:08:40.572Z,4.20
2022-08-17T01:11:09.056Z,4.30
2022-08-17T01:13:42.000Z,4.50
2022-08-17T01:16:17.014Z,4.30
2022-08-17T01:18:47.005Z,4.00
2022-08-17T01:21:33.244Z,5.10
2022-08-17T01:24:03.149Z,4.18
2022-08-17T01:26:33.337Z,4.60
2022-08-17T01:29:02.690Z,4.63
2022-08-17T01:31:35.994Z,4.63
2022-08-17T01:34:08.709Z,4.35
2022-08-17T01:36:36.739Z,4.15
2022-08-17T01:39:07.655Z,3.85
2022-08-17T01:41:38.073Z,4.97
2022-08-17T01:44:08.466Z,4.72
2022-08-17T01:46:38.681Z,5.00
2022-08-17T01:49:08.346Z,4.40
2022-08-17T01:51:36.199Z,5.17
2022-08-17T01:54:09.911Z,4.60
2022-08-17T01:56:41.201Z,4.65
2022-08-17T01:59:09.322Z,5.75
2022-08-17T02:01:38.149Z,5.18
2022-08-17T02:04:08.436Z,4.63
2022-08-17T02:06:53.715Z,5.13
2022-08-17T02:09:25.713Z,4.85
2022-08-17T02:11:54.576Z,5.70
2022-08-17T02:14:22.769Z,5.18
2022-08-17T02:16:50.750Z,5.32
2022-08-17T02:19:19.103Z,5.00
2022-08-17T02:21:49.653Z,4.72
2022-08-17T02:25:00.619Z,5.40
2022-08-17T02:27:11.169Z,4.90
2022-08-17T02:29:39.420Z,4.20
2022-08-17T02:32:07.827Z,5.10
2022-08-17T02:34:35.825Z,5.00
2022-08-17T02:37:03.714Z,5.15
2022-08-17T02:39:31.794Z,4.85
2022-08-17T02:42:02.501Z,5.00
2022-08-17T02:44:39.149Z,6.07
2022-08-17T02:47:09.130Z,6.35
2022-08-17T02:49:37.735Z,5.43
2022-08-17T02:52:08.432Z,4.88
2022-08-17T02:54:40.659Z,5.00
2022-08-17T02:57:10.485Z,5.03
2022-08-17T02:59:39.967Z,4.80
2022-08-17T03:02:10.894Z,4.60
2022-08-17T03:04:39.239Z,5.20
2022-08-17T03:07:07.508Z,5.47
2022-08-17T03:09:35.692Z,4.90
2022-08-17T03:12:08.253Z,5.20
2022-08-17T03:14:41.472Z,5.30
2022-08-17T03:17:17.136Z,5.78
2022-08-17T03:19:45.439Z,5.25
2022-08-17T03:22:36.641Z,5.70
2022-08-17T03:25:01.346Z,5.85
2022-08-17T03:27:30.074Z,5.00
2022-08-17T03:29:59.541Z,4.88
2022-08-17T03:32:27.431Z,5.25
2022-08-17T03:34:59.338Z,5.80
2022-08-17T03:37:27.589Z,5.10
2022-08-17T03:39:55.757Z,5.45
2022-08-17T03:42:32.413Z,5.32
2022-08-17T03:45:03.257Z,5.43
2022-08-17T03:47:48.469Z,6.03
2022-08-17T03:50:32.338Z,5.53
2022-08-17T03:53:18.963Z,5.65
2022-08-17T03:56:04.271Z,5.20
2022-08-17T03:58:32.137Z,5.63
2022-08-17T04:01:02.609Z,6.18
2022-08-17T04:05:58.159Z,6.25
2022-08-17T04:08:26.058Z,6.78
2022-08-17T04:10:53.906Z,6.35
2022-08-17T04:13:24.235Z,5.53
2022-08-17T04:15:53.333Z,5.80
2022-08-17T04:18:22.623Z,6.60
2022-08-17T04:20:50.567Z,6.35
2022-08-17T04:23:19.958Z,5.82
2022-08-17T04:25:50.013Z,5.88
2022-08-17T04:28:18.955Z,5.93
2022-08-17T04:30:48.829Z,5.85
2022-08-17T04:33:19.848Z,6.00
2022-08-17T04:35:51.097Z,5.38
2022-08-17T04:38:22.711Z,5.60
2022-08-17T04:41:08.678Z,6.00
2022-08-17T04:43:37.941Z,5.50
2022-08-17T04:46:08.369Z,5.75
2022-08-17T04:48:38.716Z,6.53
2022-08-17T04:51:10.742Z,6.30
2022-08-17T04:53:40.054Z,6.15
2022-08-17T04:56:11.589Z,6.22
2022-08-17T04:58:39.792Z,5.10
2022-08-17T05:01:08.198Z,6.75
2022-08-17T05:03:36.743Z,5.18
2022-08-17T05:06:05.246Z,7.28
2022-08-17T05:08:34.763Z,6.40
2022-08-17T05:11:03.116Z,5.85
2022-08-17T05:13:31.071Z,5.80
2022-08-17T05:16:04.197Z,5.97
2022-08-17T05:18:32.564Z,5.65
2022-08-17T05:21:01.339Z,5.57
2022-08-17T05:23:42.958Z,6.68
2022-08-17T05:26:25.819Z,6.47
2022-08-17T05:28:55.127Z,6.38
2022-08-17T05:31:25.794Z,6.78
2022-08-17T05:33:54.405Z,7.50
2022-08-17T05:36:41.883Z,7.20
2022-08-17T05:39:15.830Z,7.85
2022-08-17T05:41:48.630Z,7.00
2022-08-17T05:44:17.772Z,6.60
2022-08-17T05:46:50.541Z,6.72
2022-08-17T05:49:23.522Z,6.40
2022-08-17T05:52:14.584Z,6.50
2022-08-17T05:55:14.902Z,6.28
2022-08-17T05:57:56.041Z,5.95
2022-08-17T06:00:30.605Z,6.97
2022-08-17T06:03:26.280Z,7.20
2022-08-17T06:09:14.185Z,6.87
2022-08-17T06:11:53.503Z,6.22
2022-08-17T06:14:35.005Z,6.07
2022-08-17T06:17:07.250Z,6.20
2022-08-17T06:19:41.733Z,6.70
2022-08-17T06:22:13.667Z,6.45
2022-08-17T06:24:47.705Z,6.00
2022-08-17T06:27:24.590Z,5.50
2022-08-17T06:29:59.121Z,5.47
2022-08-17T06:32:27.449Z,5.40
2022-08-17T06:34:55.532Z,5.63
2022-08-17T06:37:39.180Z,6.55
2022-08-17T06:40:22.976Z,5.82
2022-08-17T06:43:07.373Z,6.63
2022-08-17T06:45:43.266Z,5.68
2022-08-17T06:48:16.525Z,5.50
2022-08-17T06:50:50.462Z,5.57
2022-08-17T06:53:23.704Z,5.50
2022-08-17T06:55:58.999Z,5.53
2022-08-17T06:58:31.364Z,6.28
2022-08-17T07:01:07.292Z,5.60
2022-08-17T07:03:39.287Z,5.63
2022-08-17T07:06:12.417Z,5.72
2022-08-17T07:08:50.319Z,5.35
2022-08-17T07:11:22.003Z,5.50
2022-08-17T07:14:05.401Z,5.88
2022-08-17T07:16:41.095Z,5.00
2022-08-17T07:19:11.013Z,4.80
2022-08-17T07:21:50.148Z,5.85
2022-08-17T07:24:31.018Z,5.53
2022-08-17T07:27:12.167Z,5.53
2022-08-17T07:29:44.162Z,5.53
2022-08-17T07:32:17.913Z,4.80
2022-08-17T07:35:02.117Z,4.97
2022-08-17T07:37:34.533Z,4.65
2022-08-17T07:40:17.321Z,4.97
2022-08-17T07:43:02.596Z,4.85
2022-08-17T07:45:50.905Z,4.85
2022-08-17T07:48:27.064Z,4.43
2022-08-17T07:50:55.893Z,4.88
2022-08-17T07:53:26.935Z,4.47
2022-08-17T07:55:55.352Z,4.28
2022-08-17T07:58:26.045Z,4.78
2022-08-17T08:01:09.068Z,4.60
2022-08-17T08:03:44.279Z,4.55
2022-08-17T08:06:21.619Z,4.00
2022-08-17T08:08:53.326Z,4.22
2022-08-17T08:11:31.799Z,4.10
2022-08-17T08:14:28.691Z,4.25
2022-08-17T08:16:59.881Z,4.00
2022-08-17T08:19:31.017Z,3.38
2022-08-17T08:22:05.716Z,3.15
2022-08-17T08:24:50.204Z,3.55
2022-08-17T08:27:29.077Z,3.92
2022-08-17T08:30:07.017Z,3.30
2022-08-17T08:32:50.375Z,3.47
2022-08-17T08:35:30.968Z,3.00
2022-08-17T08:38:08.362Z,3.15
2022-08-17T08:41:04.142Z,2.80
2022-08-17T08:43:41.496Z,2.85
2022-08-17T08:46:19.819Z,2.88
2022-08-17T08:49:38.994Z,2.95
2022-08-17T08:52:21.719Z,2.50
2022-08-17T08:54:59.371Z,2.90
2022-08-17T08:57:34.514Z,3.20
2022-08-17T09:00:15.165Z,3.00
2022-08-17T09:03:16.278Z,2.90
2022-08-17T09:06:33.296Z,3.28
2022-08-17T09:09:09.177Z,3.65
2022-08-17T09:12:01.140Z,2.50
2022-08-17T09:14:46.812Z,2.67
2022-08-17T09:17:20.247Z,2.65
2022-08-17T09:19:55.853Z,2.28
2022-08-17T09:22:33.908Z,2.08
2022-08-17T09:25:09.976Z,2.60
2022-08-17T09:27:49.058Z,2.33
2022-08-17T09:30:18.336Z,2.20
2022-08-17T09:32:50.017Z,2.47
2022-08-17T09:35:22.824Z,2.58
2022-08-17T09:37:59.505Z,2.47
2022-08-17T09:40:35.026Z,2.20
2022-08-17T09:43:09.054Z,2.40
2022-08-17T09:45:43.629Z,2.53
2022-08-17T09:48:18.888Z,2.35
2022-08-17T09:51:05.423Z,2.70
2022-08-17T09:53:36.992Z,2.63
2022-08-17T09:56:21.829Z,2.47
2022-08-17T09:59:04.475Z,2.05
2022-08-17T10:01:39.930Z,2.40
2022-08-17T10:04:29.328Z,2.40
2022-08-17T10:07:03.025Z,2.22
2022-08-17T10:09:44.309Z,2.40
2022-08-17T10:12:29.848Z,2.65
2022-08-17T10:15:13.918Z,2.20
2022-08-17T10:17:55.516Z,2.10
2022-08-17T10:20:29.553Z,2.15
2022-08-17T10:23:19.865Z,2.20
2022-08-17T10:26:20.421Z,2.08
2022-08-17T10:28:54.503Z,1.88
2022-08-17T10:31:34.719Z,2.30
2022-08-17T10:34:26.027Z,1.75
2022-08-17T10:37:05.782Z,2.35
2022-08-17T10:39:51.822Z,2.08
2022-08-17T10:42:30.834Z,2.22
2022-08-17T10:45:07.760Z,2.28
2022-08-17T10:48:04.739Z,2.60
2022-08-17T10:51:08.704Z,1.77
2022-08-17T10:54:01.731Z,2.40
2022-08-17T10:56:47.016Z,2.00
2022-08-17T10:59:50.705Z,3.08
2022-08-17T11:02:26.216Z,2.33
2022-08-17T11:05:20.661Z,2.10
2022-08-17T11:08:23.458Z,2.13
2022-08-17T11:11:07.763Z,2.17
2022-08-17T11:13:45.888Z,2.00
2022-08-17T11:16:45.612Z,2.05
2022-08-17T11:19:46.964Z,2.10
2022-08-17T11:22:36.019Z,2.00
2022-08-17T11:25:26.300Z,2.22
2022-08-17T11:28:07.747Z,2.35
2022-08-17T11:30:47.050Z,1.98
2022-08-17T11:33:54.256Z,1.92
2022-08-17T11:36:38.068Z,1.90
2022-08-17T11:39:23.780Z,2.00
2022-08-17T11:42:02.443Z,1.80
2022-08-17T11:44:40.264Z,1.85
2022-08-17T11:47:35.365Z,1.92
2022-08-17T11:51:02.730Z,2.38
2022-08-17T11:54:30.508Z,3.30
2022-08-17T11:56:51.952Z,2.30
2022-08-17T11:59:58.723Z,2.53
2022-08-17T12:02:48.538Z,2.72
2022-08-17T12:08:11.959Z,2.33
2022-08-17T12:10:54.874Z,2.58
2022-08-17T12:13:30.591Z,2.40
2022-08-17T12:16:07.372Z,2.58
2022-08-17T12:18:39.454Z,2.80
2022-08-17T12:21:23.247Z,2.65
2022-08-17T12:23:58.325Z,2.55
2022-08-17T12:26:31.269Z,3.30
2022-08-17T12:29:02.205Z,2.40
2022-08-17T12:31:36.049Z,3.05
2022-08-17T12:34:05.654Z,2.80
2022-08-17T12:36:34.688Z,2.80
2022-08-17T12:39:13.074Z,3.75
2022-08-17T12:41:47.223Z,3.03
2022-08-17T12:44:17.687Z,2.80
2022-08-17T12:47:00.395Z,2.50
2022-08-17T12:49:32.623Z,2.33
2022-08-17T12:52:10.204Z,2.25
2022-08-17T12:54:46.693Z,2.17
2022-08-17T12:57:20.313Z,2.63
2022-08-17T12:59:52.127Z,2.40
2022-08-17T13:02:30.915Z,2.42
2022-08-17T13:05:02.123Z,2.53
2022-08-17T13:07:34.071Z,2.60
2022-08-17T13:10:02.495Z,2.67
2022-08-17T13:12:34.501Z,2.97
2022-08-17T13:15:02.852Z,2.60
2022-08-17T13:17:34.642Z,2.40
2022-08-17T13:20:04.688Z,2.20
2022-08-17T13:25:05.549Z,2.30
2022-08-17T13:27:35.093Z,2.45
2022-08-17T13:30:08.734Z,2.20
2022-08-17T13:32:44.130Z,2.50
2022-08-17T13:35:39.242Z,2.40
2022-08-17T13:38:10.104Z,2.38
2022-08-17T13:40:42.675Z,2.55
2022-08-17T13:43:13.013Z,2.05
2022-08-17T13:46:08.152Z,2.80
2022-08-17T13:48:36.691Z,2.40
2022-08-17T13:51:15.493Z,2.67
2022-08-17T13:54:07.148Z,2.70
2022-08-17T13:56:41.596Z,2.78
2022-08-17T13:59:15.743Z,3.33
2022-08-17T14:01:51.116Z,2.60
2022-08-17T14:04:23.683Z,2.35
2022-08-17T14:06:55.201Z,2.50
2022-08-17T14:09:25.367Z,3.33
2022-08-17T14:14:24.151Z,2.35
2022-08-17T14:19:22.066Z,2.60
2022-08-17T14:21:51.327Z,2.95
2022-08-17T14:24:24.268Z,2.37
2022-08-17T14:26:53.422Z,2.70
2022-08-17T14:29:23.674Z,3.00
2022-08-17T14:34:23.329Z,2.65
2022-08-17T14:36:52.728Z,2.42
2022-08-17T14:39:21.279Z,3.10
2022-08-17T14:41:49.722Z,2.30
2022-08-17T14:44:17.862Z,3.97
2022-08-17T14:46:47.977Z,2.70
2022-08-17T14:51:44.714Z,2.67
2022-08-17T14:54:13.130Z,2.47
2022-08-17T14:57:23.110Z,2.90
2022-08-17T14:59:51.766Z,2.67
2022-08-17T15:02:29.767Z,2.90
2022-08-17T15:05:03.101Z,2.50
2022-08-17T15:07:31.739Z,2.78
2022-08-17T15:10:01.515Z,2.50
2022-08-17T15:15:01.984Z,2.78
2022-08-17T15:17:44.332Z,2.50
2022-08-17T15:20:16.416Z,2.85
2022-08-17T15:22:45.761Z,2.30
2022-08-17T15:25:14.262Z,2.60
2022-08-17T15:27:42.260Z,2.28
2022-08-17T15:30:11.742Z,2.28
2022-08-17T15:32:45.866Z,1.88
2022-08-17T15:35:27.584Z,2.35
2022-08-17T15:37:58.456Z,2.30
2022-08-17T15:40:26.855Z,2.17
2022-08-17T15:42:55.117Z,2.35
2022-08-17T15:45:26.573Z,2.40
2022-08-17T15:47:55.968Z,2.35
2022-08-17T15:50:23.963Z,2.15
2022-08-17T15:53:00.009Z,2.30
2022-08-17T15:55:29.952Z,2.10
2022-08-17T16:00:26.059Z,2.28
2022-08-17T16:03:44.715Z,2.90
2022-08-17T16:05:46.402Z,2.40
2022-08-17T16:08:20.666Z,2.55
2022-08-17T16:10:48.754Z,2.30
2022-08-17T16:13:18.080Z,2.42
2022-08-17T16:15:52.553Z,2.58
2022-08-17T16:18:31.086Z,2.00
2022-08-17T16:21:21.536Z,2.25
2022-08-17T16:23:51.467Z,2.20
2022-08-17T16:26:19.811Z,2.17
2022-08-17T16:28:47.665Z,2.50
2022-08-17T16:31:15.982Z,2.35
2022-08-17T16:34:03.784Z,2.67
2022-08-17T16:36:33.210Z,2.28
2022-08-17T16:39:01.474Z,2.25
2022-08-17T16:41:45.111Z,2.17
2022-08-17T16:44:15.355Z,2.60
2022-08-17T16:46:45.421Z,2.35
2022-08-17T16:49:35.447Z,2.97
2022-08-17T16:52:07.436Z,2.60
2022-08-17T16:57:05.587Z,2.47
2022-08-17T16:59:42.120Z,2.22
2022-08-17T17:02:15.355Z,2.42
2022-08-17T17:07:34.919Z,2.28
2022-08-17T17:10:08.643Z,2.50
2022-08-17T17:13:03.943Z,2.60
2022-08-17T17:15:34.813Z,2.42
2022-08-17T17:18:06.982Z,2.45
2022-08-17T17:20:45.837Z,2.40
2022-08-17T17:23:26.071Z,2.40
2022-08-17T17:26:04.036Z,2.75
2022-08-17T17:28:43.321Z,2.58
2022-08-17T17:31:16.950Z,2.30
2022-08-17T17:33:48.276Z,2.35
2022-08-17T17:36:26.065Z,3.20
2022-08-17T17:38:59.235Z,2.38
2022-08-17T17:41:34.046Z,2.10
2022-08-17T17:44:07.515Z,2.30
2022-08-17T17:46:39.799Z,2.22
2022-08-17T17:49:10.135Z,2.25
2022-08-17T17:52:06.258Z,2.20
2022-08-17T17:54:57.795Z,3.45
2022-08-17T17:57:36.218Z,2.90
2022-08-17T18:00:10.041Z,2.55
2022-08-17T18:02:52.577Z,2.13
2022-08-17T18:05:34.206Z,2.47
2022-08-17T18:08:15.593Z,2.35
2022-08-17T18:10:51.202Z,2.67
2022-08-17T18:13:29.056Z,2.60
2022-08-17T18:16:00.733Z,2.72
2022-08-17T18:18:38.596Z,2.20
2022-08-17T18:21:15.786Z,2.38
2022-08-17T18:23:54.573Z,2.60
2022-08-17T18:26:45.000Z,2.35
2022-08-17T18:29:25.479Z,2.80
2022-08-17T18:32:23.706Z,2.78
2022-08-17T18:34:54.258Z,2.42
2022-08-17T18:37:33.742Z,2.40
2022-08-17T18:40:24.665Z,2.63
2022-08-17T18:43:02.785Z,2.60
2022-08-17T18:45:41.927Z,2.80
2022-08-17T18:48:30.777Z,3.10
2022-08-17T18:51:05.016Z,3.10
2022-08-17T18:53:38.078Z,2.60
2022-08-17T18:56:25.863Z,2.50
2022-08-17T18:59:04.436Z,2.92
2022-08-17T19:01:52.688Z,2.85
2022-08-17T19:04:35.403Z,2.92
2022-08-17T19:07:24.362Z,3.00
2022-08-17T19:09:58.099Z,3.20
2022-08-17T19:12:32.363Z,3.55
2022-08-17T19:15:01.698Z,3.60
2022-08-17T19:17:38.610Z,3.30
2022-08-17T19:20:13.911Z,4.97
2022-08-17T19:23:01.565Z,3.88
2022-08-17T19:25:34.862Z,3.22
2022-08-17T19:28:12.697Z,2.95
2022-08-17T19:30:51.172Z,3.00
2022-08-17T19:33:19.454Z,3.78
2022-08-17T19:36:06.263Z,3.97
2022-08-17T19:38:48.517Z,3.30
2022-08-17T19:41:22.904Z,3.17
2022-08-17T19:44:06.672Z,3.03
2022-08-17T19:46:48.659Z,3.22
2022-08-17T19:49:33.258Z,2.97
2022-08-17T19:52:20.416Z,3.42
2022-08-17T19:54:57.485Z,3.35
2022-08-17T19:57:35.124Z,2.85
2022-08-17T20:00:10.771Z,3.40
2022-08-17T20:02:47.705Z,3.00
2022-08-17T20:05:20.988Z,3.20
2022-08-17T20:07:55.295Z,3.17
2022-08-17T20:10:31.518Z,2.95
2022-08-17T20:13:09.173Z,3.35
2022-08-17T20:15:42.495Z,3.50
2022-08-17T20:18:19.031Z,3.45
2022-08-17T20:20:54.898Z,3.42
2022-08-17T20:23:32.421Z,3.42
2022-08-17T20:26:10.603Z,3.55
2022-08-17T20:28:40.301Z,2.95
2022-08-17T20:31:44.685Z,4.00
2022-08-17T20:34:36.771Z,3.33
2022-08-17T20:37:08.811Z,3.22
2022-08-17T20:39:40.026Z,3.90
2022-08-17T20:42:13.191Z,3.90
2022-08-17T20:44:44.521Z,3.38
2022-08-17T20:47:22.761Z,3.67
2022-08-17T20:49:58.260Z,3.78
2022-08-17T20:52:53.861Z,3.33
2022-08-17T20:55:55.877Z,3.55
2022-08-17T20:58:53.817Z,3.28
2022-08-17T21:01:37.305Z,3.80
2022-08-17T21:04:29.523Z,3.22
2022-08-17T21:07:29.019Z,4.25
2022-08-17T21:10:11.298Z,3.20
2022-08-17T21:12:42.486Z,3.38
2022-08-17T21:15:28.480Z,4.03
2022-08-17T21:18:07.493Z,4.13
2022-08-17T21:20:43.180Z,3.90
2022-08-17T21:23:42.245Z,3.58
2022-08-17T21:26:18.639Z,3.38
2022-08-17T21:29:29.683Z,3.60
2022-08-17T21:32:10.707Z,3.65
2022-08-17T21:34:42.419Z,3.22
2022-08-17T21:37:31.477Z,3.60
2022-08-17T21:40:21.381Z,3.53
2022-08-17T21:42:52.718Z,3.95
2022-08-17T21:45:23.695Z,3.75
2022-08-17T21:48:07.734Z,3.00
2022-08-17T21:50:37.095Z,3.33
2022-08-17T21:53:08.747Z,3.70
2022-08-17T21:55:37.565Z,3.10
2022-08-17T21:58:13.790Z,3.50
2022-08-17T22:00:44.230Z,3.65
2022-08-17T22:03:25.857Z,3.45
2022-08-17T22:05:54.012Z,3.50
2022-08-17T22:08:25.485Z,3.80
2022-08-17T22:11:02.078Z,4.00
2022-08-17T22:13:30.221Z,4.15
2022-08-17T22:16:15.701Z,4.72
2022-08-17T22:18:58.028Z,3.90
2022-08-17T22:21:26.128Z,3.90
2022-08-17T22:24:07.704Z,3.83
2022-08-17T22:27:00.236Z,3.30
2022-08-17T22:29:57.287Z,3.80
2022-08-17T22:32:44.735Z,4.60
2022-08-17T22:35:35.505Z,4.80
2022-08-17T22:38:32.333Z,4.00
2022-08-17T22:41:27.027Z,4.10
2022-08-17T22:43:57.376Z,3.83
2022-08-17T22:46:26.649Z,3.75
2022-08-17T22:48:57.907Z,3.97
2022-08-17T22:51:30.703Z,4.07
2022-08-17T22:54:19.445Z,3.72
2022-08-17T22:57:15.538Z,4.22
2022-08-17T22:59:50.368Z,3.47
2022-08-17T23:02:25.824Z,3.80
2022-08-17T23:04:57.484Z,4.05
2022-08-17T23:07:25.697Z,3.72
2022-08-17T23:09:54.847Z,4.15
2022-08-17T23:12:27.515Z,3.53
2022-08-17T23:15:01.633Z,3.70
2022-08-17T23:17:37.201Z,4.00
2022-08-17T23:20:08.261Z,3.60
2022-08-17T23:22:37.094Z,4.18
2022-08-17T23:25:06.416Z,4.05
2022-08-17T23:27:36.790Z,4.00
2022-08-17T23:30:05.167Z,3.55
2022-08-17T23:32:36.647Z,3.58
2022-08-17T23:35:16.435Z,3.60
2022-08-17T23:37:44.829Z,4.18
2022-08-17T23:40:13.139Z,3.80
2022-08-17T23:42:46.152Z,3.72
2022-08-17T23:45:14.338Z,3.70
2022-08-17T23:47:42.399Z,3.90
2022-08-17T23:50:11.129Z,4.03
2022-08-17T23:52:41.222Z,3.97
2022-08-17T23:55:10.399Z,4.40
2022-08-17T23:57:38.911Z,4.38
